sensor_id;sensor_type;location;lat;lon;timestamp;temperature;humidity
27858;DHT22;16852;51.446;6.528;2023-07-29T10:43:09;25.00;99.90
27858;DHT22;16852;51.446;6.528;2023-07-29T10:45:20;24.90;99.90
27858;DHT22;16852;51.446;6.528;2023-07-29T10:47:26;24.90;99.90
27858;DHT22;16852;51.446;6.528;2023-07-29T10:49:29;24.90;99.90
27858;DHT22;16852;51.446;6.528;2023-07-29T10:51:36;24.80;99.90
27858;DHT22;16852;51.446;6.528;2023-07-29T10:53:37;24.70;99.90
27858;DHT22;16852;51.446;6.528;2023-07-29T10:55:38;24.70;99.90
27858;DHT22;16852;51.446;6.528;2023-07-29T10:57:39;24.70;99.90
27858;DHT22;16852;51.446;6.528;2023-07-29T10:59:56;24.70;99.90
27858;DHT22;16852;51.446;6.528;2023-07-29T11:01:57;24.70;99.90
27858;DHT22;16852;51.446;6.528;2023-07-29T11:06:24;24.60;99.90
27858;DHT22;16852;51.446;6.528;2023-07-29T11:08:29;24.50;99.90
27858;DHT22;16852;51.446;6.528;2023-07-29T11:10:42;24.50;99.90
27858;DHT22;16852;51.446;6.528;2023-07-29T11:12:51;24.30;99.90
27858;DHT22;16852;51.446;6.528;2023-07-29T11:14:52;24.30;99.90
27858;DHT22;16852;51.446;6.528;2023-07-29T11:16:53;24.10;99.90
27858;DHT22;16852;51.446;6.528;2023-07-29T11:18:56;24.10;99.90
27858;DHT22;16852;51.446;6.528;2023-07-29T11:20:58;24.10;99.90
27858;DHT22;16852;51.446;6.528;2023-07-29T11:23:03;24.00;99.90
27858;DHT22;16852;51.446;6.528;2023-07-29T11:25:05;24.00;99.90
27858;DHT22;16852;51.446;6.528;2023-07-29T11:27:11;24.00;99.90
27858;DHT22;16852;51.446;6.528;2023-07-29T11:29:12;24.00;99.90
27858;DHT22;16852;51.446;6.528;2023-07-29T11:31:12;23.90;99.90
27858;DHT22;16852;51.446;6.528;2023-07-29T11:33:19;23.90;99.90
27858;DHT22;16852;51.446;6.528;2023-07-29T11:35:20;24.00;99.90
27858;DHT22;16852;51.446;6.528;2023-07-29T11:37:21;24.00;99.90
27858;DHT22;16852;51.446;6.528;2023-07-29T11:39:22;24.10;99.90
27858;DHT22;16852;51.446;6.528;2023-07-29T11:41:22;24.10;99.90
27858;DHT22;16852;51.446;6.528;2023-07-29T11:43:23;24.00;99.90
27858;DHT22;16852;51.446;6.528;2023-07-29T11:45:24;24.00;99.90
27858;DHT22;16852;51.446;6.528;2023-07-29T11:47:25;24.00;99.90
27858;DHT22;16852;51.446;6.528;2023-07-29T11:49:26;24.00;99.90
27858;DHT22;16852;51.446;6.528;2023-07-29T11:51:27;24.00;99.90
27858;DHT22;16852;51.446;6.528;2023-07-29T11:53:29;24.00;99.90
27858;DHT22;16852;51.446;6.528;2023-07-29T11:55:30;24.00;99.90
27858;DHT22;16852;51.446;6.528;2023-07-29T11:57:36;24.00;99.90
27858;DHT22;16852;51.446;6.528;2023-07-29T11:59:37;24.00;99.90
27858;DHT22;16852;51.446;6.528;2023-07-29T12:01:38;24.10;99.90
27858;DHT22;16852;51.446;6.528;2023-07-29T12:03:40;24.10;99.90
27858;DHT22;16852;51.446;6.528;2023-07-29T12:05:41;24.00;99.90
27858;DHT22;16852;51.446;6.528;2023-07-29T12:07:44;24.00;99.90
27858;DHT22;16852;51.446;6.528;2023-07-29T12:09:46;24.00;99.90
27858;DHT22;16852;51.446;6.528;2023-07-29T12:11:47;24.10;99.90
27858;DHT22;16852;51.446;6.528;2023-07-29T12:13:47;24.00;99.90
27858;DHT22;16852;51.446;6.528;2023-07-29T12:15:48;24.00;99.90
27858;DHT22;16852;51.446;6.528;2023-07-29T12:17:52;24.00;99.90
27858;DHT22;16852;51.446;6.528;2023-07-29T12:19:54;24.00;99.90
27858;DHT22;16852;51.446;6.528;2023-07-29T12:21:55;24.00;99.90
27858;DHT22;16852;51.446;6.528;2023-07-29T12:23:56;24.00;99.90
27858;DHT22;16852;51.446;6.528;2023-07-29T12:25:58;24.00;99.90
27858;DHT22;16852;51.446;6.528;2023-07-29T12:28:03;24.10;99.90
27858;DHT22;16852;51.446;6.528;2023-07-29T12:30:05;24.10;99.90
27858;DHT22;16852;51.446;6.528;2023-07-29T12:32:06;24.00;99.90
27858;DHT22;16852;51.446;6.528;2023-07-29T12:34:07;24.10;99.90
27858;DHT22;16852;51.446;6.528;2023-07-29T12:36:08;24.10;99.90
27858;DHT22;16852;51.446;6.528;2023-07-29T12:38:08;24.10;99.90
27858;DHT22;16852;51.446;6.528;2023-07-29T12:40:25;24.20;99.90
27858;DHT22;16852;51.446;6.528;2023-07-29T12:42:26;24.20;99.90
27858;DHT22;16852;51.446;6.528;2023-07-29T12:44:34;24.30;99.90
27858;DHT22;16852;51.446;6.528;2023-07-29T12:46:35;24.30;99.90
27858;DHT22;16852;51.446;6.528;2023-07-29T12:48:36;24.40;99.90
27858;DHT22;16852;51.446;6.528;2023-07-29T12:50:37;24.40;99.90
27858;DHT22;16852;51.446;6.528;2023-07-29T12:52:38;24.40;99.90
27858;DHT22;16852;51.446;6.528;2023-07-29T12:54:39;24.40;99.90
27858;DHT22;16852;51.446;6.528;2023-07-29T12:56:40;24.40;99.90
27858;DHT22;16852;51.446;6.528;2023-07-29T12:58:41;24.30;99.90
27858;DHT22;16852;51.446;6.528;2023-07-29T13:00:41;24.40;99.90
27858;DHT22;16852;51.446;6.528;2023-07-29T13:02:42;24.40;99.90
27858;DHT22;16852;51.446;6.528;2023-07-29T13:04:42;24.40;99.90
27858;DHT22;16852;51.446;6.528;2023-07-29T13:06:43;24.40;99.90
27858;DHT22;16852;51.446;6.528;2023-07-29T13:08:44;24.40;99.90
27858;DHT22;16852;51.446;6.528;2023-07-29T13:10:45;24.40;99.90
27858;DHT22;16852;51.446;6.528;2023-07-29T13:12:46;24.40;99.90
27858;DHT22;16852;51.446;6.528;2023-07-29T13:14:46;24.50;99.90
27858;DHT22;16852;51.446;6.528;2023-07-29T13:16:47;24.40;99.90
27858;DHT22;16852;51.446;6.528;2023-07-29T13:18:47;24.40;99.90
27858;DHT22;16852;51.446;6.528;2023-07-29T13:20:48;24.40;99.90
27858;DHT22;16852;51.446;6.528;2023-07-29T13:22:49;24.40;99.90
27858;DHT22;16852;51.446;6.528;2023-07-29T13:24:49;24.30;99.90
27858;DHT22;16852;51.446;6.528;2023-07-29T13:26:50;24.30;99.90
27858;DHT22;16852;51.446;6.528;2023-07-29T13:28:51;24.20;99.90
27858;DHT22;16852;51.446;6.528;2023-07-29T13:30:52;24.10;99.90
27858;DHT22;16852;51.446;6.528;2023-07-29T13:32:52;24.00;99.90
27858;DHT22;16852;51.446;6.528;2023-07-29T13:34:53;23.90;99.90
27858;DHT22;16852;51.446;6.528;2023-07-29T13:36:53;23.90;99.90
27858;DHT22;16852;51.446;6.528;2023-07-29T13:38:54;23.70;99.90
27858;DHT22;16852;51.446;6.528;2023-07-29T13:40:55;23.60;99.90
27858;DHT22;16852;51.446;6.528;2023-07-29T13:42:55;23.50;99.90
27858;DHT22;16852;51.446;6.528;2023-07-29T13:44:56;23.20;99.90
27858;DHT22;16852;51.446;6.528;2023-07-29T13:46:56;22.80;99.90
27858;DHT22;16852;51.446;6.528;2023-07-29T13:48:57;22.30;99.90
27858;DHT22;16852;51.446;6.528;2023-07-29T13:50:58;22.20;99.90
27858;DHT22;16852;51.446;6.528;2023-07-29T13:52:58;22.10;99.90
27858;DHT22;16852;51.446;6.528;2023-07-29T13:54:59;22.10;99.90
27858;DHT22;16852;51.446;6.528;2023-07-29T13:56:59;22.10;99.90
27858;DHT22;16852;51.446;6.528;2023-07-29T13:59:00;22.10;99.90
27858;DHT22;16852;51.446;6.528;2023-07-29T14:01:01;22.10;99.90
27858;DHT22;16852;51.446;6.528;2023-07-29T14:03:01;22.10;99.90
27858;DHT22;16852;51.446;6.528;2023-07-29T14:05:02;22.10;99.90
27858;DHT22;16852;51.446;6.528;2023-07-29T14:07:03;22.10;99.90
27858;DHT22;16852;51.446;6.528;2023-07-29T14:09:04;22.10;99.90
27858;DHT22;16852;51.446;6.528;2023-07-29T14:11:04;22.20;99.90
27858;DHT22;16852;51.446;6.528;2023-07-29T14:13:05;22.20;99.90
27858;DHT22;16852;51.446;6.528;2023-07-29T14:15:06;22.30;99.90
27858;DHT22;16852;51.446;6.528;2023-07-29T14:17:07;22.30;99.90
27858;DHT22;16852;51.446;6.528;2023-07-29T14:19:09;22.40;99.90
27858;DHT22;16852;51.446;6.528;2023-07-29T14:21:09;22.50;99.90
27858;DHT22;16852;51.446;6.528;2023-07-29T14:23:10;22.50;99.90
27858;DHT22;16852;51.446;6.528;2023-07-29T14:25:11;22.60;99.90
27858;DHT22;16852;51.446;6.528;2023-07-29T14:27:11;22.70;99.90
27858;DHT22;16852;51.446;6.528;2023-07-29T14:29:12;22.80;99.90
27858;DHT22;16852;51.446;6.528;2023-07-29T14:31:12;22.80;99.90
27858;DHT22;16852;51.446;6.528;2023-07-29T14:33:13;22.80;99.90
27858;DHT22;16852;51.446;6.528;2023-07-29T14:35:15;22.80;99.90
27858;DHT22;16852;51.446;6.528;2023-07-29T14:37:15;22.90;99.90
27858;DHT22;16852;51.446;6.528;2023-07-29T14:39:16;22.90;99.90
27858;DHT22;16852;51.446;6.528;2023-07-29T14:41:17;23.00;99.90
27858;DHT22;16852;51.446;6.528;2023-07-29T14:43:18;23.00;99.90
27858;DHT22;16852;51.446;6.528;2023-07-29T14:45:18;23.00;99.90
27858;DHT22;16852;51.446;6.528;2023-07-29T14:47:19;23.10;99.90
27858;DHT22;16852;51.446;6.528;2023-07-29T14:49:19;23.10;99.90
27858;DHT22;16852;51.446;6.528;2023-07-29T14:51:20;23.10;99.90
27858;DHT22;16852;51.446;6.528;2023-07-29T14:53:21;23.00;99.90
27858;DHT22;16852;51.446;6.528;2023-07-29T14:55:21;23.00;99.90
27858;DHT22;16852;51.446;6.528;2023-07-29T14:57:22;23.00;99.90
27858;DHT22;16852;51.446;6.528;2023-07-29T14:59:22;22.90;99.90
27858;DHT22;16852;51.446;6.528;2023-07-29T15:01:23;22.90;99.90
27858;DHT22;16852;51.446;6.528;2023-07-29T15:03:24;22.90;99.90
27858;DHT22;16852;51.446;6.528;2023-07-29T15:05:25;22.80;99.90
27858;DHT22;16852;51.446;6.528;2023-07-29T15:07:26;22.80;99.90
27858;DHT22;16852;51.446;6.528;2023-07-29T15:09:26;22.80;99.90
27858;DHT22;16852;51.446;6.528;2023-07-29T15:11:27;22.80;99.90
27858;DHT22;16852;51.446;6.528;2023-07-29T15:13:28;22.70;99.90
27858;DHT22;16852;51.446;6.528;2023-07-29T15:15:28;22.70;99.90
27858;DHT22;16852;51.446;6.528;2023-07-29T15:17:29;22.60;99.90
27858;DHT22;16852;51.446;6.528;2023-07-29T15:19:30;22.50;99.90
27858;DHT22;16852;51.446;6.528;2023-07-29T15:21:30;22.50;99.90
27858;DHT22;16852;51.446;6.528;2023-07-29T15:23:33;22.60;99.90
27858;DHT22;16852;51.446;6.528;2023-07-29T15:25:35;22.60;99.90
27858;DHT22;16852;51.446;6.528;2023-07-29T15:27:38;22.60;99.90
27858;DHT22;16852;51.446;6.528;2023-07-29T15:29:39;22.60;99.90
27858;DHT22;16852;51.446;6.528;2023-07-29T15:31:40;22.60;99.90
27858;DHT22;16852;51.446;6.528;2023-07-29T15:33:40;22.60;99.90
27858;DHT22;16852;51.446;6.528;2023-07-29T15:35:41;22.60;99.90
27858;DHT22;16852;51.446;6.528;2023-07-29T15:37:42;22.60;99.90
27858;DHT22;16852;51.446;6.528;2023-07-29T15:39:42;22.60;99.90
27858;DHT22;16852;51.446;6.528;2023-07-29T15:41:43;22.70;99.90
27858;DHT22;16852;51.446;6.528;2023-07-29T15:43:43;22.70;99.90
27858;DHT22;16852;51.446;6.528;2023-07-29T15:45:44;22.70;99.90
27858;DHT22;16852;51.446;6.528;2023-07-29T15:47:45;22.70;99.90
27858;DHT22;16852;51.446;6.528;2023-07-29T15:49:46;22.80;99.90
27858;DHT22;16852;51.446;6.528;2023-07-29T15:51:47;22.80;99.90
27858;DHT22;16852;51.446;6.528;2023-07-29T15:53:47;22.80;99.90
27858;DHT22;16852;51.446;6.528;2023-07-29T15:55:50;22.80;99.90
27858;DHT22;16852;51.446;6.528;2023-07-29T15:57:50;22.80;99.90
27858;DHT22;16852;51.446;6.528;2023-07-29T15:59:51;22.80;99.90
27858;DHT22;16852;51.446;6.528;2023-07-29T16:01:52;22.80;99.90
27858;DHT22;16852;51.446;6.528;2023-07-29T16:03:52;22.70;99.90
27858;DHT22;16852;51.446;6.528;2023-07-29T16:05:53;22.70;99.90
27858;DHT22;16852;51.446;6.528;2023-07-29T16:07:53;22.70;99.90
27858;DHT22;16852;51.446;6.528;2023-07-29T16:09:56;22.70;99.90
27858;DHT22;16852;51.446;6.528;2023-07-29T16:11:57;22.70;99.90
27858;DHT22;16852;51.446;6.528;2023-07-29T16:13:57;22.70;99.90
27858;DHT22;16852;51.446;6.528;2023-07-29T16:15:58;22.70;99.90
27858;DHT22;16852;51.446;6.528;2023-07-29T16:17:59;22.60;99.90
27858;DHT22;16852;51.446;6.528;2023-07-29T16:20:02;22.70;99.90
27858;DHT22;16852;51.446;6.528;2023-07-29T16:22:03;22.70;99.90
27858;DHT22;16852;51.446;6.528;2023-07-29T16:24:04;22.70;99.90
27858;DHT22;16852;51.446;6.528;2023-07-29T16:26:04;22.70;99.90
27858;DHT22;16852;51.446;6.528;2023-07-29T16:28:05;22.70;99.90
27858;DHT22;16852;51.446;6.528;2023-07-29T16:30:06;22.80;99.90
27858;DHT22;16852;51.446;6.528;2023-07-29T16:32:07;22.70;99.90
27858;DHT22;16852;51.446;6.528;2023-07-29T16:34:08;22.70;99.90
27858;DHT22;16852;51.446;6.528;2023-07-29T16:36:09;22.70;99.90
27858;DHT22;16852;51.446;6.528;2023-07-29T16:38:09;22.70;99.90
27858;DHT22;16852;51.446;6.528;2023-07-29T16:40:10;22.70;99.90
27858;DHT22;16852;51.446;6.528;2023-07-29T16:42:11;22.70;99.90
27858;DHT22;16852;51.446;6.528;2023-07-29T16:44:11;22.70;99.90
27858;DHT22;16852;51.446;6.528;2023-07-29T16:46:12;22.70;99.90
27858;DHT22;16852;51.446;6.528;2023-07-29T16:48:13;22.80;99.90
27858;DHT22;16852;51.446;6.528;2023-07-29T16:50:14;22.80;99.90
27858;DHT22;16852;51.446;6.528;2023-07-29T16:52:14;22.80;99.90
27858;DHT22;16852;51.446;6.528;2023-07-29T16:54:15;22.80;99.90
27858;DHT22;16852;51.446;6.528;2023-07-29T16:56:18;22.80;99.90
27858;DHT22;16852;51.446;6.528;2023-07-29T16:58:18;22.80;99.90
27858;DHT22;16852;51.446;6.528;2023-07-29T17:00:19;22.80;99.90
27858;DHT22;16852;51.446;6.528;2023-07-29T17:02:19;22.80;99.90
27858;DHT22;16852;51.446;6.528;2023-07-29T17:04:20;22.80;99.90
27858;DHT22;16852;51.446;6.528;2023-07-29T17:06:20;22.80;99.90
27858;DHT22;16852;51.446;6.528;2023-07-29T17:08:21;22.80;99.90
27858;DHT22;16852;51.446;6.528;2023-07-29T17:10:21;22.60;99.90
27858;DHT22;16852;51.446;6.528;2023-07-29T17:12:22;22.30;99.90
27858;DHT22;16852;51.446;6.528;2023-07-29T17:14:23;21.70;99.90
27858;DHT22;16852;51.446;6.528;2023-07-29T17:16:23;21.00;99.90
27858;DHT22;16852;51.446;6.528;2023-07-29T17:18:24;20.50;99.90
27858;DHT22;16852;51.446;6.528;2023-07-29T17:20:24;20.40;99.90
27858;DHT22;16852;51.446;6.528;2023-07-29T17:22:25;20.20;99.90
27858;DHT22;16852;51.446;6.528;2023-07-29T17:24:26;20.10;99.90
27858;DHT22;16852;51.446;6.528;2023-07-29T17:26:28;20.10;99.90
27858;DHT22;16852;51.446;6.528;2023-07-29T17:28:28;20.00;99.90
27858;DHT22;16852;51.446;6.528;2023-07-29T17:30:30;20.00;99.90
27858;DHT22;16852;51.446;6.528;2023-07-29T17:32:31;20.00;99.90
27858;DHT22;16852;51.446;6.528;2023-07-29T17:34:32;20.00;99.90
27858;DHT22;16852;51.446;6.528;2023-07-29T17:36:32;20.00;99.90
27858;DHT22;16852;51.446;6.528;2023-07-29T17:38:33;20.00;99.90
27858;DHT22;16852;51.446;6.528;2023-07-29T17:40:33;20.10;99.90
27858;DHT22;16852;51.446;6.528;2023-07-29T17:42:34;20.10;99.90
27858;DHT22;16852;51.446;6.528;2023-07-29T17:44:35;20.10;99.90
27858;DHT22;16852;51.446;6.528;2023-07-29T17:46:35;20.10;99.90
27858;DHT22;16852;51.446;6.528;2023-07-29T17:48:36;20.10;99.90
27858;DHT22;16852;51.446;6.528;2023-07-29T17:50:36;20.10;99.90
27858;DHT22;16852;51.446;6.528;2023-07-29T17:52:37;20.10;99.90
27858;DHT22;16852;51.446;6.528;2023-07-29T17:54:38;20.20;99.90
27858;DHT22;16852;51.446;6.528;2023-07-29T17:56:39;20.20;99.90
27858;DHT22;16852;51.446;6.528;2023-07-29T17:58:40;20.20;99.90
27858;DHT22;16852;51.446;6.528;2023-07-29T18:00:40;20.30;99.90
27858;DHT22;16852;51.446;6.528;2023-07-29T18:02:41;20.30;99.90
27858;DHT22;16852;51.446;6.528;2023-07-29T18:04:41;20.30;99.90
27858;DHT22;16852;51.446;6.528;2023-07-29T18:06:42;20.40;99.90
27858;DHT22;16852;51.446;6.528;2023-07-29T18:08:43;20.40;99.90
27858;DHT22;16852;51.446;6.528;2023-07-29T18:10:44;20.50;99.90
27858;DHT22;16852;51.446;6.528;2023-07-29T18:12:44;20.50;99.90
27858;DHT22;16852;51.446;6.528;2023-07-29T18:14:45;20.50;99.90
27858;DHT22;16852;51.446;6.528;2023-07-29T18:16:45;20.50;99.90
27858;DHT22;16852;51.446;6.528;2023-07-29T18:18:46;20.60;99.90
27858;DHT22;16852;51.446;6.528;2023-07-29T18:20:50;20.60;99.90
27858;DHT22;16852;51.446;6.528;2023-07-29T18:22:51;20.70;99.90
27858;DHT22;16852;51.446;6.528;2023-07-29T18:24:51;20.70;99.90
27858;DHT22;16852;51.446;6.528;2023-07-29T18:26:52;20.80;99.90
27858;DHT22;16852;51.446;6.528;2023-07-29T18:28:53;20.80;99.90
27858;DHT22;16852;51.446;6.528;2023-07-29T18:30:53;20.80;99.90
27858;DHT22;16852;51.446;6.528;2023-07-29T18:32:54;20.80;99.90
27858;DHT22;16852;51.446;6.528;2023-07-29T18:34:54;20.90;99.90
27858;DHT22;16852;51.446;6.528;2023-07-29T18:36:55;20.90;99.90
27858;DHT22;16852;51.446;6.528;2023-07-29T18:38:56;21.00;99.90
27858;DHT22;16852;51.446;6.528;2023-07-29T18:40:56;21.00;99.90
27858;DHT22;16852;51.446;6.528;2023-07-29T18:42:57;21.00;99.90
27858;DHT22;16852;51.446;6.528;2023-07-29T18:44:57;21.00;99.90
27858;DHT22;16852;51.446;6.528;2023-07-29T18:46:58;21.00;99.90
27858;DHT22;16852;51.446;6.528;2023-07-29T18:48:58;21.10;99.90
27858;DHT22;16852;51.446;6.528;2023-07-29T18:50:59;21.10;99.90
27858;DHT22;16852;51.446;6.528;2023-07-29T18:53:01;21.10;99.90
27858;DHT22;16852;51.446;6.528;2023-07-29T18:55:01;21.00;99.90
27858;DHT22;16852;51.446;6.528;2023-07-29T18:57:02;21.10;99.90
27858;DHT22;16852;51.446;6.528;2023-07-29T18:59:02;21.10;99.90
27858;DHT22;16852;51.446;6.528;2023-07-29T19:01:04;21.10;99.90
27858;DHT22;16852;51.446;6.528;2023-07-29T19:03:04;21.10;99.90
27858;DHT22;16852;51.446;6.528;2023-07-29T19:05:05;21.00;99.90
27858;DHT22;16852;51.446;6.528;2023-07-29T19:07:08;21.00;99.90
27858;DHT22;16852;51.446;6.528;2023-07-29T19:09:09;21.00;99.90
27858;DHT22;16852;51.446;6.528;2023-07-29T19:11:10;21.00;99.90
27858;DHT22;16852;51.446;6.528;2023-07-29T19:13:11;21.00;99.90
27858;DHT22;16852;51.446;6.528;2023-07-29T19:15:11;20.90;99.90
27858;DHT22;16852;51.446;6.528;2023-07-29T19:17:12;20.90;99.90
27858;DHT22;16852;51.446;6.528;2023-07-29T19:19:13;20.90;99.90
27858;DHT22;16852;51.446;6.528;2023-07-29T19:21:15;21.00;99.90
27858;DHT22;16852;51.446;6.528;2023-07-29T19:23:16;20.90;99.90
27858;DHT22;16852;51.446;6.528;2023-07-29T19:25:17;20.90;99.90
27858;DHT22;16852;51.446;6.528;2023-07-29T19:27:17;20.90;99.90
27858;DHT22;16852;51.446;6.528;2023-07-29T19:29:18;20.90;99.90
27858;DHT22;16852;51.446;6.528;2023-07-29T19:31:18;20.90;99.90
27858;DHT22;16852;51.446;6.528;2023-07-29T19:33:19;20.80;99.90
27858;DHT22;16852;51.446;6.528;2023-07-29T19:35:20;20.80;99.90
27858;DHT22;16852;51.446;6.528;2023-07-29T19:37:23;20.80;99.90
27858;DHT22;16852;51.446;6.528;2023-07-29T19:39:25;20.80;99.90
27858;DHT22;16852;51.446;6.528;2023-07-29T19:41:25;20.80;99.90
27858;DHT22;16852;51.446;6.528;2023-07-29T19:43:27;20.70;99.90
27858;DHT22;16852;51.446;6.528;2023-07-29T19:45:30;20.70;99.90
27858;DHT22;16852;51.446;6.528;2023-07-29T19:47:30;20.70;99.90
27858;DHT22;16852;51.446;6.528;2023-07-29T19:49:31;20.70;99.90
27858;DHT22;16852;51.446;6.528;2023-07-29T19:51:33;20.70;99.90
27858;DHT22;16852;51.446;6.528;2023-07-29T19:53:33;20.70;99.90
27858;DHT22;16852;51.446;6.528;2023-07-29T19:55:35;20.70;99.90
27858;DHT22;16852;51.446;6.528;2023-07-29T19:57:35;20.70;99.90
27858;DHT22;16852;51.446;6.528;2023-07-29T19:59:36;20.70;99.90
27858;DHT22;16852;51.446;6.528;2023-07-29T20:01:36;20.70;99.90
27858;DHT22;16852;51.446;6.528;2023-07-29T20:03:37;20.70;99.90
27858;DHT22;16852;51.446;6.528;2023-07-29T20:05:40;20.70;99.90
27858;DHT22;16852;51.446;6.528;2023-07-29T20:07:41;20.60;99.90
27858;DHT22;16852;51.446;6.528;2023-07-29T20:09:42;20.70;99.90
27858;DHT22;16852;51.446;6.528;2023-07-29T20:11:42;20.70;99.90
27858;DHT22;16852;51.446;6.528;2023-07-29T20:13:43;20.70;99.90
27858;DHT22;16852;51.446;6.528;2023-07-29T20:15:44;20.70;99.90
27858;DHT22;16852;51.446;6.528;2023-07-29T20:17:44;20.70;99.90
27858;DHT22;16852;51.446;6.528;2023-07-29T20:19:45;20.70;99.90
27858;DHT22;16852;51.446;6.528;2023-07-29T20:21:45;20.70;99.90
27858;DHT22;16852;51.446;6.528;2023-07-29T20:23:46;20.70;99.90
27858;DHT22;16852;51.446;6.528;2023-07-29T20:25:48;20.70;99.90
27858;DHT22;16852;51.446;6.528;2023-07-29T20:27:50;20.70;99.90
27858;DHT22;16852;51.446;6.528;2023-07-29T20:29:50;20.70;99.90
27858;DHT22;16852;51.446;6.528;2023-07-29T20:31:51;20.70;99.90
27858;DHT22;16852;51.446;6.528;2023-07-29T20:33:52;20.60;99.90
27858;DHT22;16852;51.446;6.528;2023-07-29T20:35:57;20.70;99.90
27858;DHT22;16852;51.446;6.528;2023-07-29T20:37:58;20.70;99.90
27858;DHT22;16852;51.446;6.528;2023-07-29T20:39:58;20.60;99.90
27858;DHT22;16852;51.446;6.528;2023-07-29T20:41:59;20.60;99.90
27858;DHT22;16852;51.446;6.528;2023-07-29T20:44:00;20.60;99.90
27858;DHT22;16852;51.446;6.528;2023-07-29T20:46:00;20.50;99.90
27858;DHT22;16852;51.446;6.528;2023-07-29T20:48:01;20.50;99.90
27858;DHT22;16852;51.446;6.528;2023-07-29T20:50:02;20.50;99.90
27858;DHT22;16852;51.446;6.528;2023-07-29T20:52:04;20.40;99.90
27858;DHT22;16852;51.446;6.528;2023-07-29T20:54:04;20.40;99.90
27858;DHT22;16852;51.446;6.528;2023-07-29T20:56:05;20.30;99.90
27858;DHT22;16852;51.446;6.528;2023-07-29T20:58:05;20.40;99.90
27858;DHT22;16852;51.446;6.528;2023-07-29T21:00:06;20.40;99.90
27858;DHT22;16852;51.446;6.528;2023-07-29T21:02:10;20.30;99.90
27858;DHT22;16852;51.446;6.528;2023-07-29T21:04:11;20.30;99.90
27858;DHT22;16852;51.446;6.528;2023-07-29T21:06:11;20.30;99.90
27858;DHT22;16852;51.446;6.528;2023-07-29T21:08:12;20.30;99.90
27858;DHT22;16852;51.446;6.528;2023-07-29T21:10:13;20.30;99.90
27858;DHT22;16852;51.446;6.528;2023-07-29T21:12:14;20.30;99.90
27858;DHT22;16852;51.446;6.528;2023-07-29T21:14:15;20.30;99.90
27858;DHT22;16852;51.446;6.528;2023-07-29T21:16:17;20.30;99.90
27858;DHT22;16852;51.446;6.528;2023-07-29T21:18:21;20.20;99.90
27858;DHT22;16852;51.446;6.528;2023-07-29T21:20:22;20.20;99.90
27858;DHT22;16852;51.446;6.528;2023-07-29T21:22:23;20.20;99.90
27858;DHT22;16852;51.446;6.528;2023-07-29T21:24:23;20.20;99.90
27858;DHT22;16852;51.446;6.528;2023-07-29T21:26:24;20.20;99.90
27858;DHT22;16852;51.446;6.528;2023-07-29T21:28:24;20.20;99.90
27858;DHT22;16852;51.446;6.528;2023-07-29T21:30:25;20.20;99.90
27858;DHT22;16852;51.446;6.528;2023-07-29T21:32:26;20.10;99.90
27858;DHT22;16852;51.446;6.528;2023-07-29T21:34:27;20.10;99.90
27858;DHT22;16852;51.446;6.528;2023-07-29T21:36:27;20.10;99.90
27858;DHT22;16852;51.446;6.528;2023-07-29T21:38:28;20.10;99.90
27858;DHT22;16852;51.446;6.528;2023-07-29T21:40:28;20.10;99.90
27858;DHT22;16852;51.446;6.528;2023-07-29T21:42:29;20.10;99.90
27858;DHT22;16852;51.446;6.528;2023-07-29T21:44:30;20.10;99.90
27858;DHT22;16852;51.446;6.528;2023-07-29T21:46:31;20.00;99.90
27858;DHT22;16852;51.446;6.528;2023-07-29T21:48:32;20.00;99.90
27858;DHT22;16852;51.446;6.528;2023-07-29T21:50:33;20.00;99.90
27858;DHT22;16852;51.446;6.528;2023-07-29T21:52:33;20.00;99.90
27858;DHT22;16852;51.446;6.528;2023-07-29T21:54:34;19.90;99.90
27858;DHT22;16852;51.446;6.528;2023-07-29T21:56:35;20.00;99.90
27858;DHT22;16852;51.446;6.528;2023-07-29T21:58:35;20.00;99.90
27858;DHT22;16852;51.446;6.528;2023-07-29T22:00:36;20.00;99.90
27858;DHT22;16852;51.446;6.528;2023-07-29T22:02:37;19.90;99.90
27858;DHT22;16852;51.446;6.528;2023-07-29T22:04:37;19.90;99.90
27858;DHT22;16852;51.446;6.528;2023-07-29T22:06:38;19.90;99.90
27858;DHT22;16852;51.446;6.528;2023-07-29T22:08:39;19.90;99.90
27858;DHT22;16852;51.446;6.528;2023-07-29T22:10:40;19.80;99.90
27858;DHT22;16852;51.446;6.528;2023-07-29T22:12:40;19.80;99.90
27858;DHT22;16852;51.446;6.528;2023-07-29T22:14:43;19.80;99.90
27858;DHT22;16852;51.446;6.528;2023-07-29T22:16:45;19.70;99.90
27858;DHT22;16852;51.446;6.528;2023-07-29T22:18:49;19.70;99.90
27858;DHT22;16852;51.446;6.528;2023-07-29T22:20:57;19.70;99.90
27858;DHT22;16852;51.446;6.528;2023-07-29T22:22:58;19.70;99.90
27858;DHT22;16852;51.446;6.528;2023-07-29T22:24:59;19.60;99.90
27858;DHT22;16852;51.446;6.528;2023-07-29T22:27:00;19.60;99.90
27858;DHT22;16852;51.446;6.528;2023-07-29T22:29:00;19.60;99.90
27858;DHT22;16852;51.446;6.528;2023-07-29T22:31:01;19.50;99.90
27858;DHT22;16852;51.446;6.528;2023-07-29T22:33:05;19.50;99.90
27858;DHT22;16852;51.446;6.528;2023-07-29T22:35:06;19.50;99.90
27858;DHT22;16852;51.446;6.528;2023-07-29T22:37:07;19.40;99.90
27858;DHT22;16852;51.446;6.528;2023-07-29T22:39:07;19.40;99.90
27858;DHT22;16852;51.446;6.528;2023-07-29T22:41:08;19.40;99.90
27858;DHT22;16852;51.446;6.528;2023-07-29T22:43:08;19.40;99.90
27858;DHT22;16852;51.446;6.528;2023-07-29T22:45:09;19.40;99.90
27858;DHT22;16852;51.446;6.528;2023-07-29T22:47:10;19.40;99.90
27858;DHT22;16852;51.446;6.528;2023-07-29T22:49:10;19.40;99.90
27858;DHT22;16852;51.446;6.528;2023-07-29T22:51:11;19.40;99.90
27858;DHT22;16852;51.446;6.528;2023-07-29T22:53:12;19.30;99.90
27858;DHT22;16852;51.446;6.528;2023-07-29T22:55:13;19.30;99.90
27858;DHT22;16852;51.446;6.528;2023-07-29T22:57:14;19.30;99.90
27858;DHT22;16852;51.446;6.528;2023-07-29T22:59:14;19.20;99.90
27858;DHT22;16852;51.446;6.528;2023-07-29T23:01:15;19.20;99.90
27858;DHT22;16852;51.446;6.528;2023-07-29T23:03:16;19.20;99.90
27858;DHT22;16852;51.446;6.528;2023-07-29T23:05:16;19.20;99.90
27858;DHT22;16852;51.446;6.528;2023-07-29T23:07:17;19.20;99.90
27858;DHT22;16852;51.446;6.528;2023-07-29T23:09:17;19.10;99.90
27858;DHT22;16852;51.446;6.528;2023-07-29T23:11:18;19.10;99.90
27858;DHT22;16852;51.446;6.528;2023-07-29T23:13:19;19.00;99.90
27858;DHT22;16852;51.446;6.528;2023-07-29T23:15:19;19.10;99.90
27858;DHT22;16852;51.446;6.528;2023-07-29T23:17:20;19.00;99.90
27858;DHT22;16852;51.446;6.528;2023-07-29T23:19:20;19.00;99.90
27858;DHT22;16852;51.446;6.528;2023-07-29T23:21:21;18.90;99.90
27858;DHT22;16852;51.446;6.528;2023-07-29T23:23:22;18.90;99.90
27858;DHT22;16852;51.446;6.528;2023-07-29T23:25:23;18.80;99.90
27858;DHT22;16852;51.446;6.528;2023-07-29T23:27:23;18.80;99.90
27858;DHT22;16852;51.446;6.528;2023-07-29T23:29:24;18.80;99.90